Prairie City, Iowa
Current Conditions -  °F | °C
As of 3:15 AM on Friday 31 Oct 2014 (Local Time) from KTNU Reporting Station
Scattered Clouds Scattered Clouds  
Wind Chill: 26°   Ceiling: Unl
Heat Index: 37°   Visibility: 10mi
Dew Point: 23°   Wind: 23mph
Humidity: 56%   Direction: 340°NNW
Pressure: 30.31"   Gusts: 30mph
Location:  41.6°N, 93.24°W
Report Text: KTNU 310815Z AUTO 34020G26KT 10SM SCT039 03/M05 A3031 RMK AO2
Loading
Personal Weather Stations






























Interactive Weather Map
Tropical Storm Tracking
New forecast layout! Learn more

10-Day Weather Forecast

Advertisements
Track Severe Weather on mobile